Time;durP1;ratioP1;P1;durP2;ratioP2;P2;SDS_P1;SDS_P2;PMS_P1;PMS_P2;Temp;Humidity;BMP_temperature;BMP_pressure;BME280_temperature;BME280_humidity;BME280_pressure;Samples;Min_cycle;Max_cycle;Signal;HPM_P1;HPM_P2
2023/08/24 00:01:16;;;;;;;5.33;4.87;;;26.60;74.30;;;;;;5014981;28;20207;-72
2023/08/24 00:03:44;;;;;;;5.37;4.87;;;26.50;73.80;;;;;;5014283;28;20248;-72
2023/08/24 00:06:11;;;;;;;9.47;5.57;;;26.50;73.90;;;;;;5015164;28;20633;-71
2023/08/24 00:08:38;;;;;;;5.67;5.10;;;26.40;74.00;;;;;;5014606;28;20238;-71
2023/08/24 00:11:07;;;;;;;5.23;4.83;;;26.40;73.80;;;;;;5014863;28;20210;-71
2023/08/24 00:13:34;;;;;;;5.53;4.63;;;26.30;73.90;;;;;;5014473;28;20239;-71
2023/08/24 00:16:01;;;;;;;4.80;4.40;;;26.30;73.90;;;;;;5014801;28;20219;-71
2023/08/24 00:18:28;;;;;;;5.67;5.17;;;26.30;73.90;;;;;;5014501;28;20247;-71
2023/08/24 00:20:55;;;;;;;7.43;4.97;;;26.20;73.50;;;;;;5014634;28;20215;-71
2023/08/24 00:23:22;;;;;;;5.37;4.87;;;26.30;73.50;;;;;;5014312;28;20247;-71
2023/08/24 00:25:48;;;;;;;5.37;4.77;;;26.30;73.10;;;;;;5014383;28;20201;-71
2023/08/24 00:28:17;;;;;;;5.20;4.77;;;26.30;73.10;;;;;;5014755;28;20247;-71
2023/08/24 00:30:43;;;;;;;5.67;4.93;;;26.30;73.40;;;;;;5014273;28;20213;-71
2023/08/24 00:33:10;;;;;;;6.60;4.83;;;26.30;73.50;;;;;;5013546;28;20215;-71
2023/08/24 00:35:37;;;;;;;4.90;4.40;;;26.20;73.30;;;;;;5014328;28;20227;-72
2023/08/24 00:38:04;;;;;;;4.73;4.37;;;26.20;74.00;;;;;;5014466;28;20596;-71
2023/08/24 00:40:32;;;;;;;6.03;5.17;;;26.20;73.10;;;;;;5014031;28;20405;-72
2023/08/24 00:42:59;;;;;;;5.63;4.43;;;26.20;72.90;;;;;;5013929;28;20200;-71
2023/08/24 00:45:27;;;;;;;5.63;5.00;;;26.20;72.60;;;;;;5013906;28;20357;-71
2023/08/24 00:47:54;;;;;;;5.90;4.13;;;26.20;72.20;;;;;;5013818;28;20294;-71
2023/08/24 00:50:21;;;;;;;4.40;4.00;;;26.20;72.10;;;;;;5013982;28;20234;-71
2023/08/24 00:52:49;;;;;;;5.87;4.20;;;26.20;72.00;;;;;;5013482;28;20215;-71
2023/08/24 00:55:17;;;;;;;6.37;4.77;;;26.20;71.80;;;;;;5014144;28;20620;-71
2023/08/24 00:57:44;;;;;;;4.73;4.30;;;26.20;71.60;;;;;;5014087;28;20220;-71
2023/08/24 01:00:12;;;;;;;4.60;4.20;;;26.20;72.00;;;;;;5014272;28;20580;-71
2023/08/24 01:02:40;;;;;;;5.40;4.17;;;26.20;72.10;;;;;;5012031;28;20276;-71
2023/08/24 01:05:08;;;;;;;4.60;4.20;;;26.20;72.10;;;;;;5013646;28;20214;-71
2023/08/24 01:07:36;;;;;;;4.90;4.50;;;26.20;72.20;;;;;;5013686;28;20327;-71
2023/08/24 01:10:04;;;;;;;5.10;4.70;;;26.20;72.30;;;;;;5014056;28;20726;-71
2023/08/24 01:12:43;;;;;;;6.03;4.33;;;26.10;72.00;;;;;;5015423;28;20334;-71
2023/08/24 01:15:15;;;;;;;5.60;4.40;;;26.10;71.90;;;;;;5016347;28;20217;-72
2023/08/24 01:17:44;;;;;;;5.47;4.07;;;26.10;71.90;;;;;;5019061;28;20238;-71
2023/08/24 01:20:14;;;;;;;4.50;4.10;;;26.10;71.70;;;;;;5018665;28;20288;-71
2023/08/24 01:22:49;;;;;;;4.60;4.20;;;26.10;71.70;;;;;;5017194;28;20210;-71
2023/08/24 01:25:23;;;;;;;5.57;4.20;;;26.10;71.50;;;;;;5015700;28;20186;-72
2023/08/24 01:27:52;;;;;;;5.60;4.40;;;26.00;71.30;;;;;;5024668;28;20207;-71
2023/08/24 01:30:19;;;;;;;4.20;3.80;;;26.00;71.40;;;;;;5027416;28;20224;-71
2023/08/24 01:32:46;;;;;;;5.30;4.07;;;26.00;71.50;;;;;;5013726;28;20203;-71
2023/08/24 01:35:13;;;;;;;6.27;4.37;;;26.00;71.50;;;;;;5013606;28;20207;-71
2023/08/24 01:37:40;;;;;;;5.53;4.30;;;25.90;71.20;;;;;;5013996;28;20294;-71
2023/08/24 01:40:12;;;;;;;7.20;4.43;;;25.90;71.10;;;;;;5013409;28;20237;-71
2023/08/24 01:42:48;;;;;;;5.57;4.00;;;25.90;71.00;;;;;;4993355;28;20624;-71
2023/08/24 01:45:18;;;;;;;4.00;3.63;;;25.90;71.10;;;;;;5013184;28;20571;-72
2023/08/24 01:47:46;;;;;;;4.93;4.43;;;26.00;71.30;;;;;;5013048;28;20207;-71
2023/08/24 01:50:13;;;;;;;4.70;4.27;;;25.90;71.30;;;;;;5013386;28;20316;-71
2023/08/24 01:52:41;;;;;;;5.03;4.40;;;25.90;71.40;;;;;;5012825;28;20219;-71
2023/08/24 01:55:09;;;;;;;4.63;4.23;;;25.90;71.50;;;;;;5012463;28;20587;-71
2023/08/24 01:57:36;;;;;;;6.07;4.10;;;25.90;71.80;;;;;;5012683;28;20198;-71
2023/08/24 02:00:03;;;;;;;4.73;4.33;;;25.80;71.80;;;;;;5012564;28;20233;-72
2023/08/24 02:02:35;;;;;;;4.70;4.00;;;25.80;71.90;;;;;;5012444;28;20260;-71
2023/08/24 02:05:02;;;;;;;8.03;4.73;;;25.80;72.10;;;;;;5012485;28;20214;-71
2023/08/24 02:07:29;;;;;;;4.70;3.90;;;25.80;72.20;;;;;;5012744;28;20203;-71
2023/08/24 02:09:56;;;;;;;4.90;4.40;;;25.80;72.20;;;;;;5012919;28;20226;-71
2023/08/24 02:12:23;;;;;;;5.03;4.60;;;25.80;72.30;;;;;;5012116;28;20241;-71
2023/08/24 02:14:50;;;;;;;4.60;4.20;;;25.70;72.40;;;;;;5012355;28;20628;-71
2023/08/24 02:17:17;;;;;;;4.70;4.30;;;25.70;72.40;;;;;;5012411;28;20231;-71
2023/08/24 02:19:45;;;;;;;4.80;4.30;;;25.70;73.20;;;;;;5012820;28;20301;-71
2023/08/24 02:22:12;;;;;;;5.03;4.53;;;25.70;72.40;;;;;;5012432;28;20227;-71
2023/08/24 02:24:39;;;;;;;4.77;4.00;;;25.70;72.50;;;;;;5012540;28;20231;-71
2023/08/24 02:27:06;;;;;;;5.00;4.10;;;25.70;72.60;;;;;;5012036;28;20204;-71
2023/08/24 02:29:33;;;;;;;4.47;4.07;;;25.60;72.30;;;;;;5012227;28;20195;-71
2023/08/24 02:31:59;;;;;;;4.67;4.00;;;25.60;72.30;;;;;;5012624;28;20338;-71
2023/08/24 02:34:26;;;;;;;4.73;4.17;;;25.60;72.30;;;;;;5012576;28;20223;-71
2023/08/24 02:36:55;;;;;;;4.60;4.20;;;25.60;72.50;;;;;;5011986;28;20215;-71
2023/08/24 02:39:21;;;;;;;4.77;4.30;;;25.60;72.50;;;;;;5012262;28;20667;-71
2023/08/24 02:41:48;;;;;;;5.33;4.47;;;25.60;72.60;;;;;;5012305;28;20219;-71
2023/08/24 02:44:15;;;;;;;5.00;4.20;;;25.60;72.50;;;;;;4996464;28;20314;-71
2023/08/24 02:46:45;;;;;;;4.40;4.00;;;25.60;72.50;;;;;;4996041;28;20215;-70
2023/08/24 02:49:11;;;;;;;5.30;4.03;;;25.60;72.60;;;;;;5012441;28;20231;-72
2023/08/24 02:51:38;;;;;;;3.97;3.57;;;25.50;72.40;;;;;;5012187;28;20578;-72
2023/08/24 02:54:07;;;;;;;4.50;4.10;;;25.50;72.40;;;;;;5011882;28;20218;-72
2023/08/24 02:56:34;;;;;;;5.20;4.60;;;25.50;72.60;;;;;;5011752;28;20586;-72
2023/08/24 02:59:00;;;;;;;4.67;4.17;;;25.50;72.50;;;;;;5012323;28;20211;-72
2023/08/24 03:01:27;;;;;;;4.70;4.30;;;25.50;72.60;;;;;;5011808;28;20705;-72
2023/08/24 03:03:54;;;;;;;4.63;4.13;;;25.50;72.60;;;;;;5011872;28;20305;-72
2023/08/24 03:06:23;;;;;;;5.13;4.10;;;25.40;72.60;;;;;;5012266;28;20234;-72
2023/08/24 03:08:50;;;;;;;4.40;4.00;;;25.40;72.70;;;;;;4992208;28;20510;-72
2023/08/24 03:11:18;;;;;;;4.30;3.77;;;25.40;72.70;;;;;;4996463;28;20218;-71
2023/08/24 03:13:45;;;;;;;4.60;4.20;;;25.30;72.70;;;;;;5011398;28;20572;-71
2023/08/24 03:16:12;;;;;;;5.27;4.50;;;25.30;72.40;;;;;;5012206;28;20230;-71
2023/08/24 03:18:39;;;;;;;5.43;4.40;;;25.30;72.20;;;;;;5011884;28;20210;-71
2023/08/24 03:21:06;;;;;;;4.03;3.57;;;25.30;72.50;;;;;;5011856;28;20234;-71
2023/08/24 03:23:33;;;;;;;5.00;4.43;;;25.30;72.60;;;;;;5012092;28;20195;-72
2023/08/24 03:26:00;;;;;;;5.63;4.23;;;25.30;72.60;;;;;;5014486;28;20219;-72
2023/08/24 03:28:28;;;;;;;4.13;3.70;;;25.30;72.50;;;;;;5015131;28;20207;-71
2023/08/24 03:30:55;;;;;;;5.47;4.87;;;25.30;72.30;;;;;;5015769;28;20207;-71
2023/08/24 03:33:22;;;;;;;5.30;4.30;;;25.30;72.20;;;;;;5015539;28;20241;-71
2023/08/24 03:35:50;;;;;;;4.27;3.90;;;25.30;72.00;;;;;;5015466;28;20214;-71
2023/08/24 03:38:17;;;;;;;4.87;4.30;;;25.30;71.70;;;;;;5015243;28;20231;-71
2023/08/24 03:40:44;;;;;;;4.70;4.10;;;25.30;71.70;;;;;;5015210;28;20231;-71
2023/08/24 03:43:11;;;;;;;4.50;3.93;;;25.40;71.60;;;;;;5014725;28;20225;-72
2023/08/24 03:45:39;;;;;;;4.63;4.13;;;25.40;71.70;;;;;;5015303;28;20207;-71
2023/08/24 03:48:07;;;;;;;5.67;4.33;;;25.40;71.60;;;;;;5014457;28;20229;-71
2023/08/24 03:50:33;;;;;;;7.50;4.70;;;25.40;71.50;;;;;;5015603;28;20211;-71
2023/08/24 03:53:00;;;;;;;4.90;4.37;;;25.50;71.50;;;;;;5014981;28;20215;-72
2023/08/24 03:55:27;;;;;;;5.60;4.10;;;25.40;71.50;;;;;;5014812;28;20195;-71
2023/08/24 03:57:54;;;;;;;4.77;4.30;;;25.50;71.40;;;;;;5015105;28;20298;-72
2023/08/24 04:00:21;;;;;;;5.90;4.30;;;25.50;71.50;;;;;;5014942;28;20227;-72
2023/08/24 04:02:49;;;;;;;4.57;4.17;;;25.50;71.50;;;;;;5014810;28;20294;-71
2023/08/24 04:05:17;;;;;;;5.20;4.13;;;25.50;71.40;;;;;;5014993;28;20267;-71
2023/08/24 04:07:44;;;;;;;6.13;4.37;;;25.50;71.40;;;;;;5014510;28;20233;-72
2023/08/24 04:10:12;;;;;;;7.03;4.70;;;25.50;71.50;;;;;;5014541;28;20253;-71
2023/08/24 04:12:39;;;;;;;5.90;4.23;;;25.50;71.40;;;;;;5014602;28;20207;-71
2023/08/24 04:15:07;;;;;;;5.20;4.00;;;25.50;72.00;;;;;;5014368;28;20729;-71
2023/08/24 04:17:34;;;;;;;6.20;4.53;;;25.50;71.20;;;;;;5015133;28;20540;-71
2023/08/24 04:20:04;;;;;;;4.83;4.37;;;25.50;71.50;;;;;;5014906;28;20230;-71
2023/08/24 04:22:30;;;;;;;5.20;4.07;;;25.50;71.50;;;;;;5014624;28;20207;-72
2023/08/24 04:24:57;;;;;;;6.33;4.40;;;25.50;71.70;;;;;;5013959;28;20217;-72
2023/08/24 04:27:24;;;;;;;7.03;4.87;;;25.50;72.80;;;;;;5014278;28;20691;-72
2023/08/24 04:29:51;;;;;;;6.63;4.90;;;25.40;72.00;;;;;;5014738;28;20341;-72
2023/08/24 04:32:18;;;;;;;5.97;4.70;;;25.40;71.90;;;;;;5014416;28;20221;-72
2023/08/24 04:34:45;;;;;;;7.10;5.10;;;25.40;71.80;;;;;;5014532;28;20207;-72
2023/08/24 04:37:13;;;;;;;6.23;5.17;;;25.40;72.30;;;;;;5013677;28;20222;-72
2023/08/24 04:39:40;;;;;;;6.20;4.70;;;25.30;72.50;;;;;;5013664;28;20223;-72
2023/08/24 04:42:07;;;;;;;5.60;5.07;;;25.40;72.60;;;;;;5014391;28;20227;-71
2023/08/24 04:44:34;;;;;;;5.10;4.60;;;25.40;72.30;;;;;;4996516;28;20567;-71
2023/08/24 04:47:01;;;;;;;5.87;4.83;;;25.40;72.30;;;;;;4998360;28;20225;-71
2023/08/24 04:49:28;;;;;;;6.13;5.47;;;25.40;72.60;;;;;;5014524;28;20219;-71
2023/08/24 04:51:55;;;;;;;8.63;5.33;;;25.40;72.90;;;;;;5013755;28;20203;-72
2023/08/24 04:54:23;;;;;;;8.00;5.30;;;25.40;72.70;;;;;;5013913;28;20226;-71
2023/08/24 04:56:50;;;;;;;9.17;5.33;;;25.40;73.20;;;;;;5013653;28;20217;-71
2023/08/24 04:59:17;;;;;;;7.47;5.63;;;25.40;73.30;;;;;;5014451;28;20223;-71
2023/08/24 05:01:44;;;;;;;12.60;5.87;;;25.40;73.50;;;;;;5013938;28;20229;-71
2023/08/24 05:04:11;;;;;;;9.53;5.90;;;25.30;73.90;;;;;;5013974;28;20203;-71
2023/08/24 05:06:37;;;;;;;7.87;5.33;;;25.30;74.10;;;;;;5014046;28;20233;-71
2023/08/24 05:09:04;;;;;;;9.47;5.97;;;25.30;74.00;;;;;;5012740;28;20360;-71
2023/08/24 05:11:32;;;;;;;13.07;6.60;;;25.30;74.10;;;;;;5013979;28;20207;-71
2023/08/24 05:13:59;;;;;;;8.27;5.53;;;25.30;74.30;;;;;;5013797;28;20235;-72
2023/08/24 05:16:27;;;;;;;10.87;6.17;;;25.30;74.00;;;;;;5014079;28;20212;-71
2023/08/24 05:18:54;;;;;;;6.07;5.03;;;25.40;74.10;;;;;;5012879;28;20231;-71
2023/08/24 05:21:21;;;;;;;4.70;4.20;;;25.40;73.50;;;;;;5013238;28;20215;-71
2023/08/24 05:23:48;;;;;;;6.60;4.77;;;25.40;73.20;;;;;;5013246;28;20219;-71
2023/08/24 05:26:22;;;;;;;5.40;4.90;;;25.40;72.90;;;;;;5013530;28;20213;-70
2023/08/24 05:28:50;;;;;;;5.43;4.70;;;25.50;73.50;;;;;;5013336;28;20194;-71
2023/08/24 05:31:17;;;;;;;5.47;4.47;;;25.60;73.30;;;;;;5013321;28;20217;-71
2023/08/24 05:33:44;;;;;;;5.90;4.30;;;25.60;73.00;;;;;;5013120;28;20250;-70
2023/08/24 05:36:11;;;;;;;5.10;4.60;;;25.70;72.40;;;;;;5012845;28;20306;-71
2023/08/24 05:38:37;;;;;;;4.40;4.00;;;25.70;72.40;;;;;;5013204;28;20203;-71
2023/08/24 05:41:05;;;;;;;5.10;4.60;;;25.70;72.50;;;;;;5012859;28;20242;-71
2023/08/24 05:43:31;;;;;;;4.93;4.33;;;25.70;72.50;;;;;;5009331;28;20207;-71
2023/08/24 05:46:00;;;;;;;4.97;4.50;;;25.80;73.30;;;;;;5012936;28;20237;-71
2023/08/24 05:48:26;;;;;;;5.20;4.37;;;25.80;72.50;;;;;;5012461;28;20298;-71
2023/08/24 05:50:53;;;;;;;5.50;5.00;;;25.80;72.40;;;;;;5012915;28;20221;-71
2023/08/24 05:53:20;;;;;;;4.30;3.90;;;25.80;72.30;;;;;;5012836;28;20591;-71
2023/08/24 05:55:47;;;;;;;5.50;4.23;;;25.90;72.30;;;;;;5012658;28;20207;-71
2023/08/24 05:58:14;;;;;;;5.17;4.67;;;25.90;71.90;;;;;;5012843;28;20605;-71
2023/08/24 06:00:40;;;;;;;4.90;4.50;;;25.90;72.20;;;;;;5011529;28;20219;-72
2023/08/24 06:03:09;;;;;;;4.20;3.80;;;25.90;71.90;;;;;;5012229;28;20235;-71
2023/08/24 06:05:36;;;;;;;5.43;4.10;;;25.90;71.80;;;;;;5012543;28;20353;-71
2023/08/24 06:08:04;;;;;;;4.13;3.73;;;25.90;71.80;;;;;;5012245;28;20236;-71
2023/08/24 06:10:31;;;;;;;4.80;3.60;;;25.90;71.80;;;;;;5012566;28;20199;-71
2023/08/24 06:12:57;;;;;;;4.40;3.70;;;25.90;72.30;;;;;;5008502;28;20309;-71
2023/08/24 06:15:27;;;;;;;3.90;3.60;;;25.90;71.60;;;;;;5012137;28;20223;-71
2023/08/24 06:17:54;;;;;;;5.53;3.67;;;25.90;71.30;;;;;;5012578;28;20253;-71
2023/08/24 06:20:22;;;;;;;4.07;3.33;;;26.00;71.00;;;;;;5012598;28;20221;-71
2023/08/24 06:22:50;;;;;;;4.67;3.77;;;25.90;71.10;;;;;;5012391;28;20650;-71
2023/08/24 06:25:17;;;;;;;4.30;3.93;;;26.00;71.30;;;;;;5012330;28;20211;-71
2023/08/24 06:27:43;;;;;;;5.43;3.60;;;26.00;71.00;;;;;;5012437;28;20303;-71
2023/08/24 06:30:11;;;;;;;5.80;3.80;;;25.90;70.70;;;;;;5012258;28;20299;-71
2023/08/24 06:32:38;;;;;;;3.70;3.40;;;26.00;70.90;;;;;;5011786;28;20261;-71
2023/08/24 06:35:06;;;;;;;3.73;3.37;;;26.00;70.70;;;;;;5011584;28;20317;-72
2023/08/24 06:37:35;;;;;;;4.97;3.50;;;26.10;70.40;;;;;;5012465;28;20570;-72
2023/08/24 06:40:02;;;;;;;3.60;3.10;;;26.10;70.00;;;;;;5012684;28;20253;-72
2023/08/24 06:42:29;;;;;;;5.07;2.90;;;26.10;69.70;;;;;;5012365;28;20227;-71
2023/08/24 06:44:56;;;;;;;3.57;2.93;;;26.10;69.10;;;;;;5011819;28;20558;-72
2023/08/24 06:47:23;;;;;;;2.90;2.70;;;26.10;68.90;;;;;;5012040;28;20215;-71
2023/08/24 06:49:51;;;;;;;3.50;3.20;;;26.10;68.90;;;;;;5011792;28;20267;-71
2023/08/24 06:52:19;;;;;;;3.47;2.70;;;26.20;68.50;;;;;;5011521;28;20677;-71
2023/08/24 06:54:48;;;;;;;3.63;2.90;;;26.20;68.40;;;;;;5011717;28;20211;-71
2023/08/24 06:57:15;;;;;;;3.33;2.50;;;26.30;67.70;;;;;;5011949;28;20231;-71
2023/08/24 06:59:42;;;;;;;4.17;3.07;;;26.30;67.40;;;;;;5014359;28;20210;-71
2023/08/24 07:02:09;;;;;;;5.30;3.07;;;26.40;67.20;;;;;;5015637;28;20231;-72
2023/08/24 07:04:36;;;;;;;3.07;2.77;;;26.40;67.00;;;;;;5015420;28;20207;-72
2023/08/24 07:07:03;;;;;;;4.07;3.23;;;26.40;67.00;;;;;;5015736;28;20229;-71
2023/08/24 07:09:30;;;;;;;3.93;2.73;;;26.40;66.60;;;;;;5015490;28;20605;-71
2023/08/24 07:11:59;;;;;;;4.00;2.60;;;26.50;66.30;;;;;;5015792;28;20226;-71
2023/08/24 07:14:26;;;;;;;4.03;2.77;;;26.50;66.70;;;;;;5015507;28;20263;-71
2023/08/24 07:16:52;;;;;;;4.07;2.70;;;26.60;66.60;;;;;;5015454;28;20688;-71
2023/08/24 07:19:20;;;;;;;2.90;2.60;;;26.70;66.40;;;;;;5013966;28;20211;-72
2023/08/24 07:21:47;;;;;;;3.67;2.70;;;26.80;66.50;;;;;;5015640;28;20219;-71
2023/08/24 07:24:14;;;;;;;3.77;3.47;;;26.90;66.50;;;;;;5015481;28;20208;-71
2023/08/24 07:26:42;;;;;;;3.07;2.63;;;26.90;66.30;;;;;;5015278;28;20209;-71
2023/08/24 07:29:10;;;;;;;3.17;2.67;;;27.00;65.40;;;;;;5015495;28;20246;-72
2023/08/24 07:31:37;;;;;;;3.20;2.70;;;27.10;65.40;;;;;;5015537;28;20240;-71
2023/08/24 07:34:04;;;;;;;3.33;2.90;;;27.20;65.40;;;;;;5014781;28;20208;-71
2023/08/24 07:36:31;;;;;;;4.03;2.70;;;27.30;66.10;;;;;;5015213;28;20225;-72
2023/08/24 07:38:58;;;;;;;4.10;3.17;;;27.30;64.70;;;;;;5015494;28;20552;-71
2023/08/24 07:41:25;;;;;;;2.90;2.60;;;27.40;64.60;;;;;;5015279;28;20240;-71
2023/08/24 07:43:52;;;;;;;3.33;2.50;;;27.50;63.70;;;;;;5014863;28;20327;-71
2023/08/24 07:46:20;;;;;;;3.10;2.53;;;27.60;63.50;;;;;;5014720;28;20215;-71
2023/08/24 07:48:47;;;;;;;3.53;2.53;;;27.70;64.30;;;;;;5014315;28;20759;-71
2023/08/24 07:51:14;;;;;;;4.87;2.80;;;27.70;63.90;;;;;;5014877;28;20204;-71
2023/08/24 07:53:41;;;;;;;4.13;2.60;;;27.80;64.10;;;;;;5014708;28;20208;-71
2023/08/24 07:56:08;;;;;;;2.80;2.60;;;27.90;63.90;;;;;;5014490;28;20220;-71
2023/08/24 07:58:35;;;;;;;3.60;2.57;;;28.00;64.40;;;;;;5015130;28;20206;-71
2023/08/24 08:01:01;;;;;;;3.23;2.93;;;28.10;63.40;;;;;;5014354;28;20769;-71
2023/08/24 08:03:30;;;;;;;2.70;2.50;;;28.20;63.20;;;;;;5014362;28;20320;-71
2023/08/24 08:05:58;;;;;;;3.47;2.40;;;28.20;62.50;;;;;;5014639;28;20575;-71
2023/08/24 08:08:25;;;;;;;3.60;2.90;;;28.20;62.10;;;;;;5014934;28;20605;-71
2023/08/24 08:10:59;;;;;;;4.87;2.13;;;28.30;62.00;;;;;;5014242;28;20226;-71
2023/08/24 08:13:26;;;;;;;3.53;2.50;;;28.30;62.70;;;;;;5014804;28;20223;-71
2023/08/24 08:15:53;;;;;;;4.10;2.70;;;28.40;62.40;;;;;;5013796;28;20207;-71
2023/08/24 08:18:20;;;;;;;3.10;2.50;;;28.50;62.60;;;;;;5014223;28;20230;-71
2023/08/24 08:20:53;;;;;;;4.03;2.50;;;28.50;61.70;;;;;;5014614;28;20207;-71
2023/08/24 08:23:20;;;;;;;2.50;2.30;;;28.60;61.90;;;;;;5014121;28;20239;-71
2023/08/24 08:25:46;;;;;;;3.00;2.40;;;28.70;62.50;;;;;;5014444;28;20294;-71
2023/08/24 08:28:13;;;;;;;4.07;2.50;;;28.80;61.30;;;;;;5013867;28;20754;-71
2023/08/24 08:30:40;;;;;;;4.57;2.80;;;28.80;61.20;;;;;;5013863;28;20234;-71
2023/08/24 08:33:08;;;;;;;2.70;2.50;;;28.90;61.70;;;;;;5014217;28;20418;-71
2023/08/24 08:35:34;;;;;;;5.07;2.93;;;29.00;61.90;;;;;;5014023;28;20227;-71
2023/08/24 08:38:03;;;;;;;2.70;2.50;;;29.10;61.10;;;;;;5013692;28;20210;-71
2023/08/24 08:40:31;;;;;;;3.77;2.40;;;29.20;60.00;;;;;;5014142;28;20210;-71
2023/08/24 08:42:59;;;;;;;2.77;2.57;;;29.20;59.90;;;;;;5013612;28;20223;-71
2023/08/24 08:45:26;;;;;;;4.43;2.60;;;29.30;60.30;;;;;;5013541;28;20242;-71
2023/08/24 08:47:56;;;;;;;4.63;2.40;;;29.40;60.10;;;;;;5013817;28;20238;-71
2023/08/24 08:50:23;;;;;;;2.73;2.47;;;29.50;60.30;;;;;;5013895;28;20313;-72
2023/08/24 08:52:51;;;;;;;4.33;2.70;;;29.60;60.20;;;;;;5013927;28;20273;-71
2023/08/24 08:55:20;;;;;;;2.80;2.37;;;29.70;60.20;;;;;;5013921;28;20207;-71
2023/08/24 08:57:48;;;;;;;3.10;2.73;;;29.80;60.40;;;;;;5013379;28;20207;-72
2023/08/24 09:00:17;;;;;;;3.73;2.47;;;29.90;60.10;;;;;;5013225;28;20199;-72
2023/08/24 09:02:46;;;;;;;3.30;2.23;;;30.10;59.70;;;;;;5013637;28;20262;-71
2023/08/24 09:05:13;;;;;;;2.90;2.60;;;30.10;58.80;;;;;;5013350;28;20207;-71
2023/08/24 09:07:41;;;;;;;4.23;2.90;;;30.20;59.30;;;;;;5013013;28;20230;-71
2023/08/24 09:10:08;;;;;;;2.80;2.60;;;30.30;59.60;;;;;;5013485;28;20231;-72
2023/08/24 09:12:36;;;;;;;2.97;2.67;;;30.40;59.70;;;;;;5013265;28;20209;-72
2023/08/24 09:15:06;;;;;;;3.07;2.77;;;30.60;59.70;;;;;;5012997;28;20202;-71
2023/08/24 09:17:32;;;;;;;4.50;2.90;;;30.70;59.20;;;;;;5013257;28;20225;-71
2023/08/24 09:20:01;;;;;;;3.30;2.63;;;30.70;58.10;;;;;;5012876;28;20213;-72
2023/08/24 09:22:28;;;;;;;3.80;3.00;;;30.80;58.30;;;;;;5012459;28;20238;-72
2023/08/24 09:24:56;;;;;;;3.70;2.97;;;30.90;58.20;;;;;;5013061;28;20219;-71
2023/08/24 09:27:23;;;;;;;4.53;2.90;;;31.00;58.60;;;;;;5013178;28;20234;-71
2023/08/24 09:29:52;;;;;;;3.73;3.20;;;31.00;58.30;;;;;;5012488;28;20298;-71
2023/08/24 09:32:23;;;;;;;4.07;2.90;;;31.10;57.60;;;;;;5013119;28;20297;-71
2023/08/24 09:34:50;;;;;;;6.00;3.23;;;31.20;57.20;;;;;;5013107;28;20261;-71
2023/08/24 09:37:18;;;;;;;4.23;3.20;;;31.30;58.00;;;;;;5013077;28;20210;-71
2023/08/24 09:39:45;;;;;;;5.33;3.10;;;31.40;57.80;;;;;;5012452;28;20263;-71
2023/08/24 09:42:13;;;;;;;3.43;2.90;;;31.50;57.20;;;;;;5012679;28;20235;-71
2023/08/24 09:44:48;;;;;;;3.97;3.20;;;31.70;57.70;;;;;;5129117;27;20646;-71
2023/08/24 09:47:15;;;;;;;6.70;3.13;;;31.80;57.80;;;;;;5130371;27;20203;-72
2023/08/24 09:49:42;;;;;;;4.40;2.90;;;32.00;57.80;;;;;;5130107;27;20211;-71
2023/08/24 09:52:10;;;;;;;5.50;3.03;;;32.10;57.60;;;;;;5130168;27;20220;-72
2023/08/24 09:54:38;;;;;;;4.90;3.47;;;32.20;57.30;;;;;;5129714;27;20199;-72
2023/08/24 09:57:07;;;;;;;8.30;3.33;;;32.30;57.20;;;;;;5129731;27;20228;-72
2023/08/24 09:59:36;;;;;;;4.43;3.30;;;32.40;56.90;;;;;;5129453;27;20216;-71
2023/08/24 10:02:15;;;;;;;3.90;3.00;;;32.60;56.70;;;;;;5130078;27;20648;-72
2023/08/24 10:04:43;;;;;;;3.33;3.00;;;32.70;56.60;;;;;;5129795;27;20253;-71
2023/08/24 10:07:15;;;;;;;3.67;3.13;;;32.90;56.40;;;;;;5130098;27;20221;-72
2023/08/24 10:09:59;;;;;;;3.60;3.13;;;33.00;56.20;;;;;;5129560;27;20498;-71
2023/08/24 10:12:29;;;;;;;5.63;3.33;;;33.10;55.80;;;;;;5129246;27;20217;-71
2023/08/24 10:15:01;;;;;;;4.77;3.43;;;33.20;56.20;;;;;;5129510;27;20602;-71
2023/08/24 10:17:30;;;;;;;5.17;3.60;;;33.30;54.80;;;;;;5129622;27;20187;-71
2023/08/24 10:19:57;;;;;;;3.40;3.10;;;33.40;54.50;;;;;;5129376;27;20234;-71
2023/08/24 10:22:25;;;;;;;4.47;3.60;;;33.50;55.60;;;;;;5129377;27;20222;-72
2023/08/24 10:24:54;;;;;;;5.90;3.43;;;33.60;55.50;;;;;;5129264;27;20637;-71
2023/08/24 10:27:23;;;;;;;4.63;3.30;;;33.60;55.80;;;;;;5128843;27;20190;-72
2023/08/24 10:29:50;;;;;;;3.83;3.37;;;33.70;55.40;;;;;;5129412;27;20545;-71
2023/08/24 10:32:17;;;;;;;3.77;3.20;;;33.80;55.50;;;;;;5129055;27;20261;-72
2023/08/24 10:34:45;;;;;;;3.73;3.10;;;33.80;55.10;;;;;;5129241;27;20286;-71
2023/08/24 10:37:12;;;;;;;4.23;3.83;;;33.90;55.70;;;;;;5129097;27;20230;-71
2023/08/24 10:39:45;;;;;;;5.97;3.70;;;34.00;55.00;;;;;;5129196;27;20218;-71
2023/08/24 10:42:12;;;;;;;5.00;3.50;;;34.10;55.00;;;;;;5128575;27;20197;-71
2023/08/24 10:44:41;;;;;;;4.17;3.77;;;34.30;55.40;;;;;;5128369;27;20230;-71
2023/08/24 10:47:19;;;;;;;5.17;3.50;;;34.40;54.20;;;;;;5127865;28;20548;-71
2023/08/24 10:50:00;;;;;;;4.40;3.80;;;34.50;55.00;;;;;;5128829;27;20231;-71
2023/08/24 10:52:32;;;;;;;3.97;3.57;;;34.60;53.70;;;;;;5128896;27;20319;-70
2023/08/24 10:55:02;;;;;;;5.13;3.67;;;34.70;53.10;;;;;;5121485;27;20232;-71
2023/08/24 10:57:38;;;;;;;6.37;3.80;;;34.80;53.20;;;;;;5115169;28;20236;-71
2023/08/24 11:00:08;;;;;;;7.97;4.10;;;34.80;51.60;;;;;;5115346;28;20227;-70
2023/08/24 11:02:43;;;;;;;9.10;3.40;;;34.90;52.90;;;;;;5115034;28;20229;-72
2023/08/24 11:05:19;;;;;;;3.97;3.50;;;35.00;52.50;;;;;;5114710;28;20586;-71
2023/08/24 11:07:50;;;;;;;4.33;3.53;;;35.10;52.20;;;;;;5115242;28;20193;-71
2023/08/24 11:10:19;;;;;;;5.57;3.87;;;35.20;52.30;;;;;;5114797;28;20207;-71
2023/08/24 11:13:08;;;;;;;4.93;3.60;;;35.40;51.80;;;;;;5114143;28;20318;-70
2023/08/24 11:15:38;;;;;;;4.80;3.40;;;35.40;50.20;;;;;;5114596;28;20215;-71
2023/08/24 11:18:16;;;;;;;5.00;3.90;;;35.50;51.50;;;;;;5114844;28;20227;-71
2023/08/24 11:20:45;;;;;;;4.00;3.40;;;35.60;51.50;;;;;;5114838;28;20256;-71
2023/08/24 11:23:13;;;;;;;4.57;3.40;;;35.70;50.50;;;;;;5114459;28;20314;-71
2023/08/24 11:25:40;;;;;;;6.03;3.50;;;35.70;50.30;;;;;;5114016;28;20671;-71
2023/08/24 11:28:07;;;;;;;3.77;3.47;;;35.80;50.70;;;;;;5114217;28;20688;-72
2023/08/24 11:30:34;;;;;;;4.00;3.37;;;35.90;51.00;;;;;;5078542;28;20242;-72
2023/08/24 11:33:02;;;;;;;3.97;3.60;;;36.00;50.90;;;;;;5114440;28;20224;-72
2023/08/24 11:35:29;;;;;;;5.37;3.90;;;36.20;50.90;;;;;;5114186;28;20228;-72
2023/08/24 11:37:57;;;;;;;4.03;3.70;;;36.30;50.80;;;;;;5114220;27;20213;-72
2023/08/24 11:40:26;;;;;;;4.13;3.40;;;36.50;49.70;;;;;;5114071;28;20233;-72
2023/08/24 11:42:55;;;;;;;4.30;3.70;;;36.60;50.70;;;;;;5113686;28;20259;-72
2023/08/24 11:45:22;;;;;;;4.50;3.70;;;36.70;49.70;;;;;;5114335;28;20534;-71
2023/08/24 11:47:49;;;;;;;4.20;3.70;;;36.80;48.90;;;;;;5114446;28;20239;-72
2023/08/24 11:50:18;;;;;;;7.10;3.70;;;36.80;49.40;;;;;;5114172;28;20214;-72
2023/08/24 11:52:45;;;;;;;5.60;3.97;;;36.90;48.20;;;;;;5113644;28;20229;-71
2023/08/24 11:55:14;;;;;;;5.23;3.90;;;37.00;48.00;;;;;;5113439;28;20210;-71
2023/08/24 11:57:42;;;;;;;4.47;4.00;;;37.00;48.80;;;;;;5114051;28;20255;-71
2023/08/24 12:00:13;;;;;;;6.03;3.60;;;37.10;48.90;;;;;;5114133;28;20245;-72
2023/08/24 12:02:40;;;;;;;5.23;3.60;;;37.20;48.90;;;;;;5114009;28;20622;-72
2023/08/24 12:05:08;;;;;;;4.97;4.43;;;37.40;49.10;;;;;;5111897;28;20586;-71
2023/08/24 12:07:35;;;;;;;4.27;3.37;;;37.50;48.80;;;;;;5112356;28;20215;-72
2023/08/24 12:10:02;;;;;;;6.53;4.20;;;37.40;48.60;;;;;;5113513;27;20326;-72
2023/08/24 12:12:31;;;;;;;5.57;4.20;;;37.40;48.40;;;;;;5113815;28;20206;-71
2023/08/24 12:14:58;;;;;;;4.97;4.10;;;37.40;48.40;;;;;;5113079;28;20718;-72
2023/08/24 12:17:25;;;;;;;4.90;3.90;;;37.30;48.70;;;;;;5094068;28;20196;-72
2023/08/24 12:20:01;;;;;;;6.00;4.27;;;37.30;49.00;;;;;;5113636;28;20212;-71
2023/08/24 12:22:28;;;;;;;6.57;4.37;;;37.30;48.10;;;;;;5112880;28;20306;-71
2023/08/24 12:24:55;;;;;;;5.47;4.10;;;37.40;47.70;;;;;;5112897;28;20645;-72
2023/08/24 12:27:23;;;;;;;5.30;4.33;;;37.40;48.50;;;;;;5113465;28;20223;-72
2023/08/24 12:29:51;;;;;;;5.03;4.40;;;37.50;48.80;;;;;;5113424;28;20294;-71
2023/08/24 12:32:20;;;;;;;5.70;4.10;;;37.60;48.90;;;;;;5113372;28;20452;-72
2023/08/24 12:34:47;;;;;;;5.13;4.33;;;37.60;48.60;;;;;;5113061;28;20203;-71
2023/08/24 12:37:14;;;;;;;4.70;3.97;;;37.70;48.60;;;;;;5112934;28;20252;-72
2023/08/24 12:39:41;;;;;;;4.37;3.97;;;37.60;48.10;;;;;;5113122;28;20223;-70
2023/08/24 12:42:08;;;;;;;5.57;4.03;;;37.70;48.10;;;;;;5113309;28;20232;-70
2023/08/24 12:44:36;;;;;;;4.00;3.60;;;37.70;48.60;;;;;;5111965;28;20312;-70
2023/08/24 12:47:04;;;;;;;4.63;4.00;;;37.80;48.70;;;;;;5113203;28;20213;-71
2023/08/24 12:49:31;;;;;;;4.40;4.00;;;37.80;48.00;;;;;;5112983;28;20324;-72